^^
Station Historical Data
Daily Summary for December 22, 2017 Units:  Both    English   Metric
« Previous Day
Next Day »
Daily Weekly Monthly Yearly Custom
  High: Low: Average:
Temperature: TemperatureF °F /  -17.8 °C 62.2 °F /  16.8 °C 74.8 °F /  23.8 °C
Dew Point: DewpointF °F /  -17.8 °C 31.5 °F /  -0.3 °C 46.1 °F /  7.8 °C
Humidity: Humidity% 20% 39%
Wind Speed: WindSpeedMPHmph /  0km/h - 1.4mph /  2.3km/h
Wind Gust: WindSpeedGustMPHmph /  0km/h - -
Wind- - SW
Pressure: PressureIn in /  0 hPa 30.05 in /  1017.5 hPa -
Precipitation: 0.00 in /  0 mm    
Historical Graphs
 
 
Tabular Data for December 22, 2017
Time Temperature Dew Point Pressure Wind Wind Speed Wind Gust Humidity Rainfall Rate (Hourly) solar Conditions
TemperatureF °F /  -17.8 °C DewpointF °F /  -17.8 °C PressureInin /  0hPa Calm     Humidity% HourlyPrecipInin /  0mm SolarRadiationWatts/m^2 W/m2 Conditions
00:00 69.6 °F /  20.9 °C 42.8 °F /  6 °C 30.25in /  1024.3hPa Calm   2.0mph /  3.2km/h 38% 0.00in /  0mm 0.0 W/m2
00:05 69.4 °F /  20.8 °C 42.8 °F /  6 °C 30.24in /  1023.9hPa SSW 4.9mph /  7.9km/h 5.0mph /  8km/h 38% 0.00in /  0mm 0.0 W/m2
00:07 69.4 °F /  20.8 °C 42.8 °F /  6 °C 30.24in /  1023.9hPa Calm   4.0mph /  6.4km/h 38% 0.00in /  0mm 0.0 W/m2
00:12 69.4 °F /  20.8 °C 43.3 °F /  6.3 °C 30.24in /  1023.9hPa West 0.9mph /  1.4km/h 3.0mph /  4.8km/h 39% 0.00in /  0mm 0.0 W/m2
00:17 69.3 °F /  20.7 °C 43.2 °F /  6.2 °C 30.24in /  1023.9hPa Calm   1.0mph /  1.6km/h 39% 0.00in /  0mm 0.0 W/m2
00:22 69.1 °F /  20.6 °C 43.7 °F /  6.5 °C 30.24in /  1023.9hPa Calm   1.0mph /  1.6km/h 40% 0.00in /  0mm 0.0 W/m2
00:27 68.9 °F /  20.5 °C 43.0 °F /  6.1 °C 30.24in /  1023.9hPa Calm   1.0mph /  1.6km/h 39% 0.00in /  0mm 0.0 W/m2
00:32 68.7 °F /  20.4 °C 42.8 °F /  6 °C 30.24in /  1023.9hPa Calm     39% 0.00in /  0mm 0.0 W/m2
00:37 68.7 °F /  20.4 °C 43.3 °F /  6.3 °C 30.24in /  1023.9hPa Calm     40% 0.00in /  0mm 0.0 W/m2
00:43 68.5 °F /  20.3 °C 43.9 °F /  6.6 °C 30.24in /  1023.9hPa Calm     41% 0.00in /  0mm 0.0 W/m2
00:48 68.4 °F /  20.2 °C 43.7 °F /  6.5 °C 30.24in /  1023.9hPa Calm   1.0mph /  1.6km/h 41% 0.00in /  0mm 0.0 W/m2
00:53 68.2 °F /  20.1 °C 44.2 °F /  6.8 °C 30.24in /  1023.9hPa Calm   1.0mph /  1.6km/h 42% 0.00in /  0mm 0.0 W/m2
00:58 67.8 °F /  19.9 °C 44.4 °F /  6.9 °C 30.23in /  1023.6hPa Calm   1.0mph /  1.6km/h 43% 0.00in /  0mm 0.0 W/m2
01:03 67.6 °F /  19.8 °C 44.4 °F /  6.9 °C 30.23in /  1023.6hPa Calm     43% 0.00in /  0mm 0.0 W/m2
01:09 67.5 °F /  19.7 °C 44.8 °F /  7.1 °C 30.22in /  1023.2hPa Calm     44% 0.00in /  0mm 0.0 W/m2
01:12 67.3 °F /  19.6 °C 45.1 °F /  7.3 °C 30.22in /  1023.2hPa Calm     45% 0.00in /  0mm 0.0 W/m2
01:17 67.3 °F /  19.6 °C 45.1 °F /  7.3 °C 30.22in /  1023.2hPa Calm     45% 0.00in /  0mm 0.0 W/m2
01:21 66.9 °F /  19.4 °C 45.0 °F /  7.2 °C 30.22in /  1023.2hPa Calm     45% 0.00in /  0mm 0.0 W/m2
01:27 66.7 °F /  19.3 °C 45.9 °F /  7.7 °C 30.22in /  1023.2hPa Calm     47% 0.00in /  0mm 0.0 W/m2
01:33 66.7 °F /  19.3 °C 46.9 °F /  8.3 °C 30.21in /  1022.9hPa Calm     49% 0.00in /  0mm 0.0 W/m2
01:38 66.6 °F /  19.2 °C 45.7 °F /  7.6 °C 30.21in /  1022.9hPa Calm     47% 0.00in /  0mm 0.0 W/m2
01:43 66.6 °F /  19.2 °C 46.8 °F /  8.2 °C 30.21in /  1022.9hPa Calm     49% 0.00in /  0mm 0.0 W/m2
01:47 66.6 °F /  19.2 °C 48.4 °F /  9.1 °C 30.21in /  1022.9hPa Calm     52% 0.00in /  0mm 0.0 W/m2
01:52 66.4 °F /  19.1 °C 47.7 °F /  8.7 °C 30.21in /  1022.9hPa Calm   1.0mph /  1.6km/h 51% 0.00in /  0mm 0.0 W/m2
01:57 66.2 °F /  19 °C 45.9 °F /  7.7 °C 30.21in /  1022.9hPa Calm   2.0mph /  3.2km/h 48% 0.00in /  0mm 0.0 W/m2
02:02 66.0 °F /  18.9 °C 45.7 °F /  7.6 °C 30.21in /  1022.9hPa Calm     48% 0.00in /  0mm 0.0 W/m2
02:07 66.0 °F /  18.9 °C 46.4 °F /  8 °C 30.21in /  1022.9hPa Calm     49% 0.00in /  0mm 0.0 W/m2
02:12 65.8 °F /  18.8 °C 47.1 °F /  8.4 °C 30.21in /  1022.9hPa Calm     51% 0.00in /  0mm 0.0 W/m2
02:19 65.7 °F /  18.7 °C 48.0 °F /  8.9 °C 30.21in /  1022.9hPa Calm     53% 0.00in /  0mm 0.0 W/m2
02:24 65.5 °F /  18.6 °C 49.3 °F /  9.6 °C 30.21in /  1022.9hPa Calm     56% 0.00in /  0mm 0.0 W/m2
02:29 65.1 °F /  18.4 °C 49.5 °F /  9.7 °C 30.21in /  1022.9hPa Calm     57% 0.00in /  0mm 0.0 W/m2
02:30 65.1 °F /  18.4 °C 49.5 °F /  9.7 °C 30.21in /  1022.9hPa Calm     57% 0.00in /  0mm 0.0 W/m2
02:35 64.8 °F /  18.2 °C 49.6 °F /  9.8 °C 30.21in /  1022.9hPa Calm     58% 0.00in /  0mm 0.0 W/m2
02:40 64.6 °F /  18.1 °C 50.0 °F /  10 °C 30.21in /  1022.9hPa Calm     59% 0.00in /  0mm 0.0 W/m2
02:46 64.2 °F /  17.9 °C 49.6 °F /  9.8 °C 30.20in /  1022.6hPa WSW 4.0mph /  6.4km/h 4.0mph /  6.4km/h 59% 0.00in /  0mm 0.0 W/m2
02:51 64.0 °F /  17.8 °C 48.6 °F /  9.2 °C 30.21in /  1022.9hPa Calm     57% 0.00in /  0mm 0.0 W/m2
02:56 63.9 °F /  17.7 °C 47.3 °F /  8.5 °C 30.21in /  1022.9hPa SE 0.9mph /  1.4km/h 2.0mph /  3.2km/h 55% 0.00in /  0mm 0.0 W/m2
03:02 63.9 °F /  17.7 °C 49.3 °F /  9.6 °C 30.21in /  1022.9hPa Calm   1.0mph /  1.6km/h 59% 0.00in /  0mm 0.0 W/m2
03:07 63.7 °F /  17.6 °C 49.5 °F /  9.7 °C 30.21in /  1022.9hPa Calm   1.0mph /  1.6km/h 60% 0.00in /  0mm 0.0 W/m2
03:08 63.7 °F /  17.6 °C 49.5 °F /  9.7 °C 30.20in /  1022.6hPa Calm   1.0mph /  1.6km/h 60% 0.00in /  0mm 0.0 W/m2
03:14 63.5 °F /  17.5 °C 48.4 °F /  9.1 °C 30.21in /  1022.9hPa Calm     58% 0.00in /  0mm 0.0 W/m2
03:19 63.3 °F /  17.4 °C 48.4 °F /  9.1 °C 30.20in /  1022.6hPa Calm   2.0mph /  3.2km/h 58% 0.00in /  0mm 0.0 W/m2
03:24 63.3 °F /  17.4 °C 47.3 °F /  8.5 °C 30.20in /  1022.6hPa Calm     56% 0.00in /  0mm 0.0 W/m2
03:29 63.1 °F /  17.3 °C 46.8 °F /  8.2 °C 30.20in /  1022.6hPa Calm   1.0mph /  1.6km/h 55% 0.00in /  0mm 0.0 W/m2
03:34 63.1 °F /  17.3 °C 46.8 °F /  8.2 °C 30.20in /  1022.6hPa South 0.9mph /  1.4km/h 1.0mph /  1.6km/h 55% 0.00in /  0mm 0.0 W/m2
03:39 63.1 °F /  17.3 °C 47.1 °F /  8.4 °C 30.20in /  1022.6hPa Calm   2.0mph /  3.2km/h 56% 0.00in /  0mm 0.0 W/m2
03:44 63.1 °F /  17.3 °C 47.7 °F /  8.7 °C 30.20in /  1022.6hPa Calm   1.0mph /  1.6km/h 57% 0.00in /  0mm 0.0 W/m2
03:48 63.1 °F /  17.3 °C 47.7 °F /  8.7 °C 30.20in /  1022.6hPa Calm   3.0mph /  4.8km/h 57% 0.00in /  0mm 0.0 W/m2
03:53 63.1 °F /  17.3 °C 47.7 °F /  8.7 °C 30.20in /  1022.6hPa Calm   1.0mph /  1.6km/h 57% 0.00in /  0mm 0.0 W/m2
03:58 63.0 °F /  17.2 °C 48.0 °F /  8.9 °C 30.20in /  1022.6hPa Calm   1.0mph /  1.6km/h 58% 0.00in /  0mm 0.0 W/m2
04:03 63.0 °F /  17.2 °C 48.0 °F /  8.9 °C 30.20in /  1022.6hPa Calm     58% 0.00in /  0mm 0.0 W/m2
04:08 63.0 °F /  17.2 °C 48.4 °F /  9.1 °C 30.20in /  1022.6hPa Calm   2.0mph /  3.2km/h 59% 0.00in /  0mm 0.0 W/m2
04:13 63.0 °F /  17.2 °C 49.3 °F /  9.6 °C 30.20in /  1022.6hPa Calm   2.0mph /  3.2km/h 61% 0.00in /  0mm 0.0 W/m2
04:18 62.8 °F /  17.1 °C 49.6 °F /  9.8 °C 30.19in /  1022.2hPa ESE 0.9mph /  1.4km/h 2.0mph /  3.2km/h 62% 0.00in /  0mm 0.0 W/m2
04:24 62.6 °F /  17 °C 48.9 °F /  9.4 °C 30.19in /  1022.2hPa Calm   1.0mph /  1.6km/h 61% 0.00in /  0mm 0.0 W/m2
04:27 62.4 °F /  16.9 °C 48.7 °F /  9.3 °C 30.19in /  1022.2hPa Calm     61% 0.00in /  0mm 0.0 W/m2
04:32 62.4 °F /  16.9 °C 49.3 °F /  9.6 °C 30.19in /  1022.2hPa Calm   2.0mph /  3.2km/h 62% 0.00in /  0mm 0.0 W/m2
04:38 62.4 °F /  16.9 °C 49.3 °F /  9.6 °C 30.19in /  1022.2hPa Calm     62% 0.00in /  0mm 0.0 W/m2
04:43 62.4 °F /  16.9 °C 49.6 °F /  9.8 °C 30.19in /  1022.2hPa Calm   2.0mph /  3.2km/h 63% 0.00in /  0mm 0.0 W/m2
04:48 62.4 °F /  16.9 °C 50.0 °F /  10 °C 30.19in /  1022.2hPa East 0.9mph /  1.4km/h 2.0mph /  3.2km/h 64% 0.00in /  0mm 0.0 W/m2
04:52 62.4 °F /  16.9 °C 50.0 °F /  10 °C 30.19in /  1022.2hPa Calm   1.0mph /  1.6km/h 64% 0.00in /  0mm 0.0 W/m2
04:57 62.2 °F /  16.8 °C 50.0 °F /  10 °C 30.19in /  1022.2hPa Calm   1.0mph /  1.6km/h 64% 0.00in /  0mm 0.0 W/m2
05:02 62.2 °F /  16.8 °C 49.5 °F /  9.7 °C 30.19in /  1022.2hPa Calm   2.0mph /  3.2km/h 63% 0.00in /  0mm 0.0 W/m2
05:06 62.2 °F /  16.8 °C 49.5 °F /  9.7 °C 30.19in /  1022.2hPa Calm   2.0mph /  3.2km/h 63% 0.00in /  0mm 0.0 W/m2
05:14 62.2 °F /  16.8 °C 50.0 °F /  10 °C 30.19in /  1022.2hPa Calm   2.0mph /  3.2km/h 64% 0.00in /  0mm 0.0 W/m2
05:19 62.2 °F /  16.8 °C 50.4 °F /  10.2 °C 30.19in /  1022.2hPa Calm   1.0mph /  1.6km/h 65% 0.00in /  0mm 0.0 W/m2
05:25 62.2 °F /  16.8 °C 50.7 °F /  10.4 °C 30.19in /  1022.2hPa Calm   1.0mph /  1.6km/h 66% 0.00in /  0mm 0.0 W/m2
05:30 62.2 °F /  16.8 °C 50.7 °F /  10.4 °C 30.19in /  1022.2hPa Calm   2.0mph /  3.2km/h 66% 0.00in /  0mm 0.0 W/m2
05:35 62.2 °F /  16.8 °C 50.4 °F /  10.2 °C 30.19in /  1022.2hPa Calm   1.0mph /  1.6km/h 65% 0.00in /  0mm 0.0 W/m2
05:45 62.4 °F /  16.9 °C 51.3 °F /  10.7 °C 30.20in /  1022.6hPa East 0.9mph /  1.4km/h 1.0mph /  1.6km/h 67% 0.00in /  0mm 0.0 W/m2
05:48 62.4 °F /  16.9 °C 51.3 °F /  10.7 °C 30.20in /  1022.6hPa Calm   2.0mph /  3.2km/h 67% 0.00in /  0mm 0.0 W/m2
05:53 62.4 °F /  16.9 °C 51.3 °F /  10.7 °C 30.20in /  1022.6hPa Calm   2.0mph /  3.2km/h 67% 0.00in /  0mm 0.0 W/m2
05:58 62.4 °F /  16.9 °C 51.8 °F /  11 °C 30.20in /  1022.6hPa Calm   1.0mph /  1.6km/h 68% 0.00in /  0mm 0.0 W/m2
06:04 62.4 °F /  16.9 °C 51.8 °F /  11 °C 30.20in /  1022.6hPa Calm   1.0mph /  1.6km/h 68% 0.00in /  0mm 0.0 W/m2
06:08 62.4 °F /  16.9 °C 51.8 °F /  11 °C 30.20in /  1022.6hPa East 0.9mph /  1.4km/h 1.0mph /  1.6km/h 68% 0.00in /  0mm 0.0 W/m2
06:13 62.4 °F /  16.9 °C 51.8 °F /  11 °C 30.21in /  1022.9hPa Calm   3.0mph /  4.8km/h 68% 0.00in /  0mm 0.0 W/m2
06:20 62.6 °F /  17 °C 51.4 °F /  10.8 °C 30.21in /  1022.9hPa Calm   1.0mph /  1.6km/h 67% 0.00in /  0mm 5.0 W/m2
06:25 62.6 °F /  17 °C 51.4 °F /  10.8 °C 30.21in /  1022.9hPa ENE 0.9mph /  1.4km/h 2.0mph /  3.2km/h 67% 0.00in /  0mm 7.0 W/m2
06:30 62.8 °F /  17.1 °C 51.6 °F /  10.9 °C 30.21in /  1022.9hPa Calm   2.0mph /  3.2km/h 67% 0.00in /  0mm 11.0 W/m2
06:35 62.8 °F /  17.1 °C 51.3 °F /  10.7 °C 30.21in /  1022.9hPa Calm     66% 0.00in /  0mm 14.0 W/m2
06:40 63.0 °F /  17.2 °C 51.8 °F /  11 °C 30.21in /  1022.9hPa Calm     67% 0.00in /  0mm 18.0 W/m2
06:45 63.0 °F /  17.2 °C 51.4 °F /  10.8 °C 30.21in /  1022.9hPa Calm     66% 0.00in /  0mm 23.0 W/m2
06:48 63.0 °F /  17.2 °C 51.4 °F /  10.8 °C 30.22in /  1023.2hPa Calm     66% 0.00in /  0mm 25.0 W/m2
06:54 63.1 °F /  17.3 °C 51.6 °F /  10.9 °C 30.22in /  1023.2hPa Calm     66% 0.00in /  0mm 28.0 W/m2
06:59 63.3 °F /  17.4 °C 51.8 °F /  11 °C 30.22in /  1023.2hPa Calm     66% 0.00in /  0mm 35.0 W/m2
07:04 63.3 °F /  17.4 °C 50.9 °F /  10.5 °C 30.22in /  1023.2hPa Calm     64% 0.00in /  0mm 42.0 W/m2
07:07 63.5 °F /  17.5 °C 51.4 °F /  10.8 °C 30.22in /  1023.2hPa Calm   1.0mph /  1.6km/h 65% 0.00in /  0mm 44.0 W/m2
07:12 63.7 °F /  17.6 °C 52.2 °F /  11.2 °C 30.22in /  1023.2hPa Calm     66% 0.00in /  0mm 49.0 W/m2
07:13 63.7 °F /  17.6 °C 52.2 °F /  11.2 °C 30.22in /  1023.2hPa Calm     66% 0.00in /  0mm 49.0 W/m2
07:18 63.9 °F /  17.7 °C 52.3 °F /  11.3 °C 30.22in /  1023.2hPa Calm     66% 0.00in /  0mm 58.0 W/m2
07:23 64.0 °F /  17.8 °C 52.5 °F /  11.4 °C 30.22in /  1023.2hPa Calm   1.0mph /  1.6km/h 66% 0.00in /  0mm 69.0 W/m2
07:26 64.2 °F /  17.9 °C 52.2 °F /  11.2 °C 30.22in /  1023.2hPa Calm     65% 0.00in /  0mm 76.0 W/m2
07:31 64.6 °F /  18.1 °C 52.9 °F /  11.6 °C 30.22in /  1023.2hPa Calm   1.0mph /  1.6km/h 66% 0.00in /  0mm 86.0 W/m2
07:37 64.8 °F /  18.2 °C 52.7 °F /  11.5 °C 30.22in /  1023.2hPa Calm     65% 0.00in /  0mm 97.0 W/m2
07:40 64.9 °F /  18.3 °C 52.9 °F /  11.6 °C 30.22in /  1023.2hPa Calm     65% 0.00in /  0mm 105.0 W/m2
07:46 65.3 °F /  18.5 °C 52.3 °F /  11.3 °C 30.23in /  1023.6hPa Calm     63% 0.00in /  0mm 118.0 W/m2
07:51 65.7 °F /  18.7 °C 53.2 °F /  11.8 °C 30.23in /  1023.6hPa ENE 0.9mph /  1.4km/h 1.0mph /  1.6km/h 64% 0.00in /  0mm 137.0 W/m2
07:56 65.8 °F /  18.8 °C 52.9 °F /  11.6 °C 30.23in /  1023.6hPa Calm   1.0mph /  1.6km/h 63% 0.00in /  0mm 155.0 W/m2
07:57 66.0 °F /  18.9 °C 53.1 °F /  11.7 °C 30.23in /  1023.6hPa Calm   1.0mph /  1.6km/h 63% 0.00in /  0mm 156.0 W/m2
08:02 66.4 °F /  19.1 °C 52.5 °F /  11.4 °C 30.23in /  1023.6hPa NE 0.9mph /  1.4km/h 2.0mph /  3.2km/h 61% 0.00in /  0mm 163.0 W/m2
08:07 66.7 °F /  19.3 °C 53.2 °F /  11.8 °C 30.23in /  1023.6hPa Calm     62% 0.00in /  0mm 183.0 W/m2
08:12 67.1 °F /  19.5 °C 53.2 °F /  11.8 °C 30.23in /  1023.6hPa Calm     61% 0.00in /  0mm 190.0 W/m2
08:15 67.5 °F /  19.7 °C 52.7 °F /  11.5 °C 30.23in /  1023.6hPa Calm     59% 0.00in /  0mm 200.0 W/m2
08:21 67.8 °F /  19.9 °C 52.5 °F /  11.4 °C 30.23in /  1023.6hPa Calm     58% 0.00in /  0mm 206.0 W/m2
08:27 68.4 °F /  20.2 °C 53.1 °F /  11.7 °C 30.23in /  1023.6hPa Calm     58% 0.00in /  0mm 211.0 W/m2
08:32 68.7 °F /  20.4 °C 52.9 °F /  11.6 °C 30.23in /  1023.6hPa Calm     57% 0.00in /  0mm 229.0 W/m2
08:37 69.1 °F /  20.6 °C 53.6 °F /  12 °C 30.22in /  1023.2hPa Calm     58% 0.00in /  0mm 246.0 W/m2
08:40 69.3 °F /  20.7 °C 53.8 °F /  12.1 °C 30.22in /  1023.2hPa Calm     58% 0.00in /  0mm 267.0 W/m2
08:45 69.6 °F /  20.9 °C 54.1 °F /  12.3 °C 30.22in /  1023.2hPa Calm     58% 0.00in /  0mm 292.0 W/m2
08:50 70.2 °F /  21.2 °C 53.8 °F /  12.1 °C 30.22in /  1023.2hPa Calm     56% 0.00in /  0mm 338.0 W/m2
08:55 70.5 °F /  21.4 °C 52.5 °F /  11.4 °C 30.22in /  1023.2hPa Calm     53% 0.00in /  0mm 362.0 W/m2
09:00 71.1 °F /  21.7 °C 53.6 °F /  12 °C 30.22in /  1023.2hPa Calm     54% 0.00in /  0mm 387.0 W/m2
09:05 71.6 °F /  22 °C 53.1 °F /  11.7 °C 30.22in /  1023.2hPa SE 2.0mph /  3.2km/h 4.0mph /  6.4km/h 52% 0.00in /  0mm 399.0 W/m2
09:07 71.8 °F /  22.1 °C 52.7 °F /  11.5 °C 30.22in /  1023.2hPa Calm   2.0mph /  3.2km/h 51% 0.00in /  0mm 432.0 W/m2
09:13 72.5 °F /  22.5 °C 52.3 °F /  11.3 °C 30.22in /  1023.2hPa Calm     49% 0.00in /  0mm 418.0 W/m2
09:18 73.0 °F /  22.8 °C 52.2 °F /  11.2 °C 30.22in /  1023.2hPa WSW 2.0mph /  3.2km/h 2.0mph /  3.2km/h 48% 0.00in /  0mm 436.0 W/m2
09:19 73.0 °F /  22.8 °C 51.6 °F /  10.9 °C 30.21in /  1022.9hPa Calm   2.0mph /  3.2km/h 47% 0.00in /  0mm 452.0 W/m2
09:24 73.2 °F /  22.9 °C 51.8 °F /  11 °C 30.21in /  1022.9hPa Calm   1.0mph /  1.6km/h 47% 0.00in /  0mm 436.0 W/m2
09:29 73.8 °F /  23.2 °C 51.1 °F /  10.6 °C 30.21in /  1022.9hPa Calm   1.0mph /  1.6km/h 45% 0.00in /  0mm 443.0 W/m2
09:34 74.5 °F /  23.6 °C 51.8 °F /  11 °C 30.21in /  1022.9hPa Calm   1.0mph /  1.6km/h 45% 0.00in /  0mm 431.0 W/m2
09:39 74.8 °F /  23.8 °C 51.4 °F /  10.8 °C 30.21in /  1022.9hPa Calm   1.0mph /  1.6km/h 44% 0.00in /  0mm 536.0 W/m2
09:44 75.2 °F /  24 °C 50.5 °F /  10.3 °C 30.21in /  1022.9hPa Calm   1.0mph /  1.6km/h 42% 0.00in /  0mm 578.0 W/m2
09:49 75.6 °F /  24.2 °C 50.2 °F /  10.1 °C 30.21in /  1022.9hPa SE 2.0mph /  3.2km/h 4.0mph /  6.4km/h 41% 0.00in /  0mm 589.0 W/m2
09:54 76.1 °F /  24.5 °C 49.3 °F /  9.6 °C 30.21in /  1022.9hPa Calm   4.0mph /  6.4km/h 39% 0.00in /  0mm 686.0 W/m2
09:56 76.3 °F /  24.6 °C 49.5 °F /  9.7 °C 30.21in /  1022.9hPa Calm   2.0mph /  3.2km/h 39% 0.00in /  0mm 835.0 W/m2
10:01 76.8 °F /  24.9 °C 48.6 °F /  9.2 °C 30.21in /  1022.9hPa SE 0.9mph /  1.4km/h 4.0mph /  6.4km/h 37% 0.00in /  0mm 652.0 W/m2
10:02 77.0 °F /  25 °C 48.0 °F /  8.9 °C 30.21in /  1022.9hPa Calm   2.0mph /  3.2km/h 36% 0.00in /  0mm 652.0 W/m2
10:07 77.5 °F /  25.3 °C 47.7 °F /  8.7 °C 30.21in /  1022.9hPa South 2.0mph /  3.2km/h 5.0mph /  8km/h 35% 0.00in /  0mm 819.0 W/m2
10:13 78.1 °F /  25.6 °C 48.2 °F /  9 °C 30.21in /  1022.9hPa West 0.9mph /  1.4km/h 3.0mph /  4.8km/h 35% 0.00in /  0mm 698.0 W/m2
10:19 77.7 °F /  25.4 °C 47.8 °F /  8.8 °C 30.21in /  1022.9hPa North 0.9mph /  1.4km/h 2.0mph /  3.2km/h 35% 0.00in /  0mm 831.0 W/m2
10:25 78.4 °F /  25.8 °C 47.7 °F /  8.7 °C 30.21in /  1022.9hPa NW 0.9mph /  1.4km/h 4.0mph /  6.4km/h 34% 0.00in /  0mm 853.0 W/m2
10:30 79.0 °F /  26.1 °C 48.2 °F /  9 °C 30.21in /  1022.9hPa Calm   2.0mph /  3.2km/h 34% 0.00in /  0mm 911.0 W/m2
10:35 79.0 °F /  26.1 °C 48.9 °F /  9.4 °C 30.21in /  1022.9hPa Calm   2.0mph /  3.2km/h 35% 0.00in /  0mm 907.0 W/m2
10:40 79.0 °F /  26.1 °C 47.5 °F /  8.6 °C 30.21in /  1022.9hPa ENE 2.0mph /  3.2km/h 5.0mph /  8km/h 33% 0.00in /  0mm 904.0 W/m2
10:45 79.5 °F /  26.4 °C 47.8 °F /  8.8 °C 30.21in /  1022.9hPa NNE 0.9mph /  1.4km/h 4.0mph /  6.4km/h 33% 0.00in /  0mm 933.0 W/m2
10:50 80.2 °F /  26.8 °C 49.3 °F /  9.6 °C 30.21in /  1022.9hPa NNE 6.0mph /  9.7km/h 7.0mph /  11.3km/h 34% 0.00in /  0mm 944.0 W/m2
10:55 80.8 °F /  27.1 °C 48.2 °F /  9 °C 30.21in /  1022.9hPa ENE 2.0mph /  3.2km/h 7.0mph /  11.3km/h 32% 0.00in /  0mm 953.0 W/m2
11:01 81.0 °F /  27.2 °C 49.1 °F /  9.5 °C 30.20in /  1022.6hPa WSW 0.9mph /  1.4km/h 1.0mph /  1.6km/h 33% 0.00in /  0mm 963.0 W/m2
11:06 81.1 °F /  27.3 °C 48.6 °F /  9.2 °C 30.20in /  1022.6hPa North 0.9mph /  1.4km/h 4.0mph /  6.4km/h 32% 0.00in /  0mm 972.0 W/m2
11:11 81.5 °F /  27.5 °C 48.0 °F /  8.9 °C 30.20in /  1022.6hPa North 2.0mph /  3.2km/h 3.0mph /  4.8km/h 31% 0.00in /  0mm 974.0 W/m2
11:12 81.3 °F /  27.4 °C 47.8 °F /  8.8 °C 30.20in /  1022.6hPa Calm   3.0mph /  4.8km/h 31% 0.00in /  0mm 972.0 W/m2
11:17 82.2 °F /  27.9 °C 49.5 °F /  9.7 °C 30.20in /  1022.6hPa NNW 4.0mph /  6.4km/h 8.0mph /  12.9km/h 32% 0.00in /  0mm 1034.0 W/m2
11:22 82.2 °F /  27.9 °C 48.6 °F /  9.2 °C 30.20in /  1022.6hPa NNW 2.0mph /  3.2km/h 6.0mph /  9.7km/h 31% 0.00in /  0mm 1014.0 W/m2
11:27 82.2 °F /  27.9 °C 47.7 °F /  8.7 °C 30.20in /  1022.6hPa Calm   1.0mph /  1.6km/h 30% 0.00in /  0mm 1004.0 W/m2
11:32 82.8 °F /  28.2 °C 49.1 °F /  9.5 °C 30.20in /  1022.6hPa SW 4.0mph /  6.4km/h 4.0mph /  6.4km/h 31% 0.00in /  0mm 1011.0 W/m2
11:37 82.8 °F /  28.2 °C 48.2 °F /  9 °C 30.20in /  1022.6hPa Calm   5.0mph /  8km/h 30% 0.00in /  0mm 997.0 W/m2
11:42 82.9 °F /  28.3 °C 48.4 °F /  9.1 °C 30.20in /  1022.6hPa East 0.9mph /  1.4km/h 5.0mph /  8km/h 30% 0.00in /  0mm 1035.0 W/m2
11:47 83.1 °F /  28.4 °C 47.7 °F /  8.7 °C 30.19in /  1022.2hPa North 2.0mph /  3.2km/h 6.0mph /  9.7km/h 29% 0.00in /  0mm 1034.0 W/m2
11:50 83.3 °F /  28.5 °C 47.7 °F /  8.7 °C 30.20in /  1022.6hPa NNW 2.9mph /  4.7km/h 8.0mph /  12.9km/h 29% 0.00in /  0mm 1037.0 W/m2
11:55 83.7 °F /  28.7 °C 48.0 °F /  8.9 °C 30.20in /  1022.6hPa NNW 6.9mph /  11.1km/h 7.0mph /  11.3km/h 29% 0.00in /  0mm 1016.0 W/m2
11:57 83.7 °F /  28.7 °C 48.0 °F /  8.9 °C 30.20in /  1022.6hPa North 0.9mph /  1.4km/h 7.0mph /  11.3km/h 29% 0.00in /  0mm 1046.0 W/m2
12:02 83.8 °F /  28.8 °C 48.2 °F /  9 °C 30.19in /  1022.2hPa SW 2.0mph /  3.2km/h 7.0mph /  11.3km/h 29% 0.00in /  0mm 1027.0 W/m2
12:12 83.7 °F /  28.7 °C 47.1 °F /  8.4 °C 30.19in /  1022.2hPa SSW 0.9mph /  1.4km/h 6.0mph /  9.7km/h 28% 0.00in /  0mm 1049.0 W/m2
12:14 83.5 °F /  28.6 °C 47.8 °F /  8.8 °C 30.19in /  1022.2hPa Calm   8.0mph /  12.9km/h 29% 0.00in /  0mm 1048.0 W/m2
12:15 83.5 °F /  28.6 °C 48.7 °F /  9.3 °C 30.19in /  1022.2hPa North 6.0mph /  9.7km/h 8.0mph /  12.9km/h 30% 0.00in /  0mm 1051.0 W/m2
12:20 83.8 °F /  28.8 °C 49.1 °F /  9.5 °C 30.19in /  1022.2hPa Calm   5.0mph /  8km/h 30% 0.00in /  0mm 1049.0 W/m2
12:22 84.0 °F /  28.9 °C 47.5 °F /  8.6 °C 30.18in /  1021.9hPa WSW 4.0mph /  6.4km/h 5.0mph /  8km/h 28% 0.00in /  0mm 1049.0 W/m2
12:27 84.0 °F /  28.9 °C 48.4 °F /  9.1 °C 30.18in /  1021.9hPa WNW 0.9mph /  1.4km/h 7.0mph /  11.3km/h 29% 0.00in /  0mm 1051.0 W/m2
12:28 83.8 °F /  28.8 °C 48.2 °F /  9 °C 30.18in /  1021.9hPa WSW 2.0mph /  3.2km/h 4.0mph /  6.4km/h 29% 0.00in /  0mm 1053.0 W/m2
12:29 83.8 °F /  28.8 °C 47.3 °F /  8.5 °C 30.18in /  1021.9hPa Calm   4.0mph /  6.4km/h 28% 0.00in /  0mm 1055.0 W/m2
12:34 84.0 °F /  28.9 °C 47.5 °F /  8.6 °C 30.18in /  1021.9hPa NNW 0.9mph /  1.4km/h 7.0mph /  11.3km/h 28% 0.00in /  0mm 1055.0 W/m2
12:40 84.7 °F /  29.3 °C 48.0 °F /  8.9 °C 30.18in /  1021.9hPa NNE 2.0mph /  3.2km/h 3.0mph /  4.8km/h 28% 0.00in /  0mm 1053.0 W/m2
12:47 85.5 °F /  29.7 °C 48.6 °F /  9.2 °C 30.18in /  1021.9hPa NNE 2.9mph /  4.7km/h 4.0mph /  6.4km/h 28% 0.00in /  0mm 1039.0 W/m2
12:52 85.5 °F /  29.7 °C 48.6 °F /  9.2 °C 30.17in /  1021.6hPa West 2.0mph /  3.2km/h 5.0mph /  8km/h 28% 0.00in /  0mm 1041.0 W/m2
12:57 85.6 °F /  29.8 °C 49.8 °F /  9.9 °C 30.17in /  1021.6hPa NNE 2.9mph /  4.7km/h 7.0mph /  11.3km/h 29% 0.00in /  0mm 1048.0 W/m2
13:07 86.2 °F /  30.1 °C 48.2 °F /  9 °C 30.16in /  1021.2hPa NNE 6.0mph /  9.7km/h 10.0mph /  16.1km/h 27% 0.00in /  0mm 1044.0 W/m2
13:12 86.5 °F /  30.3 °C 49.6 °F /  9.8 °C 30.16in /  1021.2hPa WSW 0.9mph /  1.4km/h 2.0mph /  3.2km/h 28% 0.00in /  0mm 1037.0 W/m2
13:22 86.5 °F /  30.3 °C 48.6 °F /  9.2 °C 30.16in /  1021.2hPa Calm   3.0mph /  4.8km/h 27% 0.00in /  0mm 1041.0 W/m2
13:28 86.7 °F /  30.4 °C 49.6 °F /  9.8 °C 30.15in /  1020.9hPa NNE 2.0mph /  3.2km/h 7.0mph /  11.3km/h 28% 0.00in /  0mm 1034.0 W/m2
13:33 87.3 °F /  30.7 °C 49.3 °F /  9.6 °C 30.15in /  1020.9hPa Calm   8.0mph /  12.9km/h 27% 0.00in /  0mm 1027.0 W/m2
13:39 87.4 °F /  30.8 °C 49.3 °F /  9.6 °C 30.14in /  1020.5hPa West 0.9mph /  1.4km/h 1.0mph /  1.6km/h 27% 0.00in /  0mm 1023.0 W/m2
13:44 87.1 °F /  30.6 °C 49.1 °F /  9.5 °C 30.14in /  1020.5hPa West 2.0mph /  3.2km/h 7.0mph /  11.3km/h 27% 0.00in /  0mm 1014.0 W/m2
13:49 86.7 °F /  30.4 °C 49.6 °F /  9.8 °C 30.14in /  1020.5hPa NNW 4.9mph /  7.9km/h 6.0mph /  9.7km/h 28% 0.00in /  0mm 1018.0 W/m2
13:54 87.1 °F /  30.6 °C 49.1 °F /  9.5 °C 30.13in /  1020.2hPa NNW 9.0mph /  14.5km/h 9.0mph /  14.5km/h 27% 0.00in /  0mm 1002.0 W/m2
13:59 87.4 °F /  30.8 °C 49.3 °F /  9.6 °C 30.13in /  1020.2hPa WNW 4.9mph /  7.9km/h 10.0mph /  16.1km/h 27% 0.00in /  0mm 1011.0 W/m2
14:04 88.0 °F /  31.1 °C 48.7 °F /  9.3 °C 30.13in /  1020.2hPa SW 2.0mph /  3.2km/h 3.0mph /  4.8km/h 26% 0.00in /  0mm 986.0 W/m2
14:07 88.2 °F /  31.2 °C 48.9 °F /  9.4 °C 30.13in /  1020.2hPa NNW 8.1mph /  13km/h 8.1mph /  13km/h 26% 0.00in /  0mm 963.0 W/m2
14:12 88.2 °F /  31.2 °C 47.8 °F /  8.8 °C 30.13in /  1020.2hPa NW 2.0mph /  3.2km/h 9.0mph /  14.5km/h 25% 0.00in /  0mm 979.0 W/m2
14:17 88.0 °F /  31.1 °C 48.7 °F /  9.3 °C 30.13in /  1020.2hPa ENE 4.0mph /  6.4km/h 5.0mph /  8km/h 26% 0.00in /  0mm 935.0 W/m2
14:22 87.8 °F /  31 °C 48.6 °F /  9.2 °C 30.12in /  1019.9hPa SSE 4.9mph /  7.9km/h 11.0mph /  17.7km/h 26% 0.00in /  0mm 962.0 W/m2
14:28 87.6 °F /  30.9 °C 48.6 °F /  9.2 °C 30.12in /  1019.9hPa Calm   5.0mph /  8km/h 26% 0.00in /  0mm 949.0 W/m2
14:38 88.3 °F /  31.3 °C 49.1 °F /  9.5 °C 30.11in /  1019.5hPa Calm   5.0mph /  8km/h 26% 0.00in /  0mm 902.0 W/m2
14:43 88.5 °F /  31.4 °C 49.3 °F /  9.6 °C 30.11in /  1019.5hPa Calm   5.0mph /  8km/h 26% 0.00in /  0mm 874.0 W/m2
14:46 88.5 °F /  31.4 °C 49.3 °F /  9.6 °C 30.11in /  1019.5hPa SSW 2.9mph /  4.7km/h 5.0mph /  8km/h 26% 0.00in /  0mm 921.0 W/m2
14:51 88.2 °F /  31.2 °C 48.9 °F /  9.4 °C 30.11in /  1019.5hPa SSW 4.9mph /  7.9km/h 5.0mph /  8km/h 26% 0.00in /  0mm 860.0 W/m2
14:56 88.0 °F /  31.1 °C 48.7 °F /  9.3 °C 30.11in /  1019.5hPa SW 2.9mph /  4.7km/h 7.0mph /  11.3km/h 26% 0.00in /  0mm 958.0 W/m2
15:01 88.2 °F /  31.2 °C 48.9 °F /  9.4 °C 30.11in /  1019.5hPa NW 2.0mph /  3.2km/h 5.0mph /  8km/h 26% 0.00in /  0mm 673.0 W/m2
15:06 88.9 °F /  31.6 °C 48.6 °F /  9.2 °C 30.10in /  1019.2hPa Calm   3.0mph /  4.8km/h 25% 0.00in /  0mm 974.0 W/m2
15:11 89.4 °F /  31.9 °C 51.1 °F /  10.6 °C 30.10in /  1019.2hPa WSW 2.9mph /  4.7km/h 3.0mph /  4.8km/h 27% 0.00in /  0mm 1071.0 W/m2
15:12 89.6 °F /  32 °C 50.2 °F /  10.1 °C 30.10in /  1019.2hPa North 4.9mph /  7.9km/h 5.0mph /  8km/h 26% 0.00in /  0mm 274.0 W/m2
15:17 89.4 °F /  31.9 °C 48.9 °F /  9.4 °C 30.09in /  1018.8hPa NE 2.0mph /  3.2km/h 7.0mph /  11.3km/h 25% 0.00in /  0mm 334.0 W/m2
15:23 89.1 °F /  31.7 °C 50.7 °F /  10.4 °C 30.09in /  1018.8hPa Calm   7.0mph /  11.3km/h 27% 0.00in /  0mm 390.0 W/m2
15:28 88.9 °F /  31.6 °C 49.6 °F /  9.8 °C 30.09in /  1018.8hPa NNW 2.0mph /  3.2km/h 4.0mph /  6.4km/h 26% 0.00in /  0mm 415.0 W/m2
15:33 88.7 °F /  31.5 °C 49.5 °F /  9.7 °C 30.09in /  1018.8hPa NW 0.9mph /  1.4km/h 4.0mph /  6.4km/h 26% 0.00in /  0mm 325.0 W/m2
15:34 88.5 °F /  31.4 °C 49.3 °F /  9.6 °C 30.09in /  1018.8hPa NNW 4.9mph /  7.9km/h 7.0mph /  11.3km/h 26% 0.00in /  0mm 323.0 W/m2
15:39 88.2 °F /  31.2 °C 50.0 °F /  10 °C 30.09in /  1018.8hPa SW 0.9mph /  1.4km/h 4.0mph /  6.4km/h 27% 0.00in /  0mm 301.0 W/m2
15:49 87.4 °F /  30.8 °C 49.3 °F /  9.6 °C 30.08in /  1018.5hPa Calm   3.0mph /  4.8km/h 27% 0.00in /  0mm 290.0 W/m2
15:50 87.4 °F /  30.8 °C 50.4 °F /  10.2 °C 30.08in /  1018.5hPa WSW 0.9mph /  1.4km/h 3.0mph /  4.8km/h 28% 0.00in /  0mm 287.0 W/m2
15:55 87.3 °F /  30.7 °C 49.3 °F /  9.6 °C 30.08in /  1018.5hPa Calm   1.0mph /  1.6km/h 27% 0.00in /  0mm 237.0 W/m2
16:00 87.1 °F /  30.6 °C 49.1 °F /  9.5 °C 30.08in /  1018.5hPa NNE 2.9mph /  4.7km/h 5.0mph /  8km/h 27% 0.00in /  0mm 223.0 W/m2
16:05 86.7 °F /  30.4 °C 50.7 °F /  10.4 °C 30.08in /  1018.5hPa Calm   3.0mph /  4.8km/h 29% 0.00in /  0mm 204.0 W/m2
16:10 86.5 °F /  30.3 °C 49.6 °F /  9.8 °C 30.07in /  1018.2hPa Calm   4.0mph /  6.4km/h 28% 0.00in /  0mm 213.0 W/m2
16:12 86.5 °F /  30.3 °C 50.5 °F /  10.3 °C 30.07in /  1018.2hPa Calm   1.0mph /  1.6km/h 29% 0.00in /  0mm 211.0 W/m2
16:18 86.0 °F /  30 °C 49.1 °F /  9.5 °C 30.07in /  1018.2hPa WSW 2.9mph /  4.7km/h 8.0mph /  12.9km/h 28% 0.00in /  0mm 206.0 W/m2
16:28 85.3 °F /  29.6 °C 51.3 °F /  10.7 °C 30.07in /  1018.2hPa West 0.9mph /  1.4km/h 2.0mph /  3.2km/h 31% 0.00in /  0mm 232.0 W/m2
16:33 85.1 °F /  29.5 °C 50.2 °F /  10.1 °C 30.07in /  1018.2hPa WNW 0.9mph /  1.4km/h 7.0mph /  11.3km/h 30% 0.00in /  0mm 253.0 W/m2
16:38 85.1 °F /  29.5 °C 49.3 °F /  9.6 °C 30.07in /  1018.2hPa Calm   4.0mph /  6.4km/h 29% 0.00in /  0mm 260.0 W/m2
16:43 85.5 °F /  29.7 °C 49.6 °F /  9.8 °C 30.07in /  1018.2hPa WSW 0.9mph /  1.4km/h 4.0mph /  6.4km/h 29% 0.00in /  0mm 775.0 W/m2
16:48 86.2 °F /  30.1 °C 50.2 °F /  10.1 °C 30.07in /  1018.2hPa Calm   3.0mph /  4.8km/h 29% 0.00in /  0mm 408.0 W/m2
16:54 86.7 °F /  30.4 °C 50.7 °F /  10.4 °C 30.07in /  1018.2hPa WNW 0.9mph /  1.4km/h 8.0mph /  12.9km/h 29% 0.00in /  0mm 622.0 W/m2
17:00 87.6 °F /  30.9 °C 50.5 °F /  10.3 °C 30.06in /  1017.8hPa West 2.0mph /  3.2km/h 8.0mph /  12.9km/h 28% 0.00in /  0mm 668.0 W/m2
17:06 88.5 °F /  31.4 °C 49.3 °F /  9.6 °C 30.06in /  1017.8hPa NW 2.0mph /  3.2km/h 5.0mph /  8km/h 26% 0.00in /  0mm 622.0 W/m2
17:12 89.2 °F /  31.8 °C 50.9 °F /  10.5 °C 30.06in /  1017.8hPa SW 4.0mph /  6.4km/h 5.0mph /  8km/h 27% 0.00in /  0mm 156.0 W/m2
17:18 88.3 °F /  31.3 °C 50.2 °F /  10.1 °C 30.06in /  1017.8hPa WSW 2.9mph /  4.7km/h 5.0mph /  8km/h 27% 0.00in /  0mm 93.0 W/m2
17:23 87.3 °F /  30.7 °C 49.3 °F /  9.6 °C 30.06in /  1017.8hPa WNW 4.0mph /  6.4km/h 8.0mph /  12.9km/h 27% 0.00in /  0mm 76.0 W/m2
17:28 86.2 °F /  30.1 °C 49.3 °F /  9.6 °C 30.06in /  1017.8hPa Calm   4.0mph /  6.4km/h 28% 0.00in /  0mm 83.0 W/m2
17:33 85.5 °F /  29.7 °C 49.6 °F /  9.8 °C 30.06in /  1017.8hPa Calm   2.0mph /  3.2km/h 29% 0.00in /  0mm 98.0 W/m2
17:38 85.5 °F /  29.7 °C 49.6 °F /  9.8 °C 30.06in /  1017.8hPa NNE 2.9mph /  4.7km/h 6.0mph /  9.7km/h 29% 0.00in /  0mm 425.0 W/m2
17:39 85.5 °F /  29.7 °C 49.6 °F /  9.8 °C 30.05in /  1017.5hPa Calm   6.0mph /  9.7km/h 29% 0.00in /  0mm 422.0 W/m2
17:45 86.5 °F /  30.3 °C 49.6 °F /  9.8 °C 30.06in /  1017.8hPa WSW 2.9mph /  4.7km/h 3.0mph /  4.8km/h 28% 0.00in /  0mm 411.0 W/m2
17:50 87.1 °F /  30.6 °C 50.0 °F /  10 °C 30.05in /  1017.5hPa Calm   5.0mph /  8km/h 28% 0.00in /  0mm 135.0 W/m2
17:55 86.5 °F /  30.3 °C 48.6 °F /  9.2 °C 30.06in /  1017.8hPa WNW 6.9mph /  11.1km/h 7.0mph /  11.3km/h 27% 0.00in /  0mm 142.0 W/m2
17:56 86.5 °F /  30.3 °C 49.6 °F /  9.8 °C 30.06in /  1017.8hPa WNW 4.0mph /  6.4km/h 8.0mph /  12.9km/h 28% 0.00in /  0mm 156.0 W/m2
17:57 86.4 °F /  30.2 °C 48.4 °F /  9.1 °C 30.06in /  1017.8hPa Calm   8.0mph /  12.9km/h 27% 0.00in /  0mm 156.0 W/m2
18:03 86.5 °F /  30.3 °C 49.6 °F /  9.8 °C 30.05in /  1017.5hPa NW 4.0mph /  6.4km/h 6.0mph /  9.7km/h 28% 0.00in /  0mm 348.0 W/m2
18:08 86.7 °F /  30.4 °C 48.7 °F /  9.3 °C 30.06in /  1017.8hPa WNW 0.9mph /  1.4km/h 10.0mph /  16.1km/h 27% 0.00in /  0mm 221.0 W/m2
18:14 87.1 °F /  30.6 °C 48.0 °F /  8.9 °C 30.06in /  1017.8hPa WNW 4.9mph /  7.9km/h 9.0mph /  14.5km/h 26% 0.00in /  0mm 309.0 W/m2
18:20 86.7 °F /  30.4 °C 48.7 °F /  9.3 °C 30.06in /  1017.8hPa SW 2.9mph /  4.7km/h 7.0mph /  11.3km/h 27% 0.00in /  0mm 285.0 W/m2
18:25 86.5 °F /  30.3 °C 47.7 °F /  8.7 °C 30.06in /  1017.8hPa SW 2.0mph /  3.2km/h 8.0mph /  12.9km/h 26% 0.00in /  0mm 267.0 W/m2
18:26 86.5 °F /  30.3 °C 47.7 °F /  8.7 °C 30.06in /  1017.8hPa SW 4.0mph /  6.4km/h 6.0mph /  9.7km/h 26% 0.00in /  0mm 267.0 W/m2
18:32 85.8 °F /  29.9 °C 45.9 °F /  7.7 °C 30.07in /  1018.2hPa West 4.9mph /  7.9km/h 10.0mph /  16.1km/h 25% 0.00in /  0mm 165.0 W/m2
18:37 85.3 °F /  29.6 °C 44.4 °F /  6.9 °C 30.06in /  1017.8hPa West 2.9mph /  4.7km/h 10.0mph /  16.1km/h 24% 0.00in /  0mm 98.0 W/m2
18:39 84.9 °F /  29.4 °C 45.1 °F /  7.3 °C 30.06in /  1017.8hPa WSW 4.9mph /  7.9km/h 9.0mph /  14.5km/h 25% 0.00in /  0mm 83.0 W/m2
18:44 84.6 °F /  29.2 °C 45.0 °F /  7.2 °C 30.07in /  1018.2hPa WNW 6.9mph /  11.1km/h 8.0mph /  12.9km/h 25% 0.00in /  0mm 46.0 W/m2
18:48 84.0 °F /  28.9 °C 44.4 °F /  6.9 °C 30.07in /  1018.2hPa WSW 2.0mph /  3.2km/h 9.0mph /  14.5km/h 25% 0.00in /  0mm 37.0 W/m2
18:49 84.0 °F /  28.9 °C 45.5 °F /  7.5 °C 30.06in /  1017.8hPa West 2.9mph /  4.7km/h 9.0mph /  14.5km/h 26% 0.00in /  0mm 35.0 W/m2
18:55 83.7 °F /  28.7 °C 45.1 °F /  7.3 °C 30.07in /  1018.2hPa SW 6.0mph /  9.7km/h 8.0mph /  12.9km/h 26% 0.00in /  0mm 32.0 W/m2
19:01 83.1 °F /  28.4 °C 44.6 °F /  7 °C 30.07in /  1018.2hPa West 6.9mph /  11.1km/h 7.0mph /  11.3km/h 26% 0.00in /  0mm 26.0 W/m2
19:06 82.8 °F /  28.2 °C 43.3 °F /  6.3 °C 30.07in /  1018.2hPa WSW 11.0mph /  17.7km/h 11.0mph /  17.7km/h 25% 0.00in /  0mm 25.0 W/m2
19:11 82.4 °F /  28 °C 43.0 °F /  6.1 °C 30.08in /  1018.5hPa West 6.0mph /  9.7km/h 10.0mph /  16.1km/h 25% 0.00in /  0mm 21.0 W/m2
19:16 82.0 °F /  27.8 °C 42.8 °F /  6 °C 30.08in /  1018.5hPa WSW 4.9mph /  7.9km/h 9.0mph /  14.5km/h 25% 0.00in /  0mm 18.0 W/m2
19:20 81.7 °F /  27.6 °C 42.4 °F /  5.8 °C 30.08in /  1018.5hPa West 4.9mph /  7.9km/h 9.0mph /  14.5km/h 25% 0.00in /  0mm 11.0 W/m2
19:26 81.1 °F /  27.3 °C 41.0 °F /  5 °C 30.09in /  1018.8hPa WSW 2.9mph /  4.7km/h 11.0mph /  17.7km/h 24% 0.00in /  0mm 11.0 W/m2
19:29 81.0 °F /  27.2 °C 39.7 °F /  4.3 °C 30.09in /  1018.8hPa West 2.9mph /  4.7km/h 10.0mph /  16.1km/h 23% 0.00in /  0mm 9.0 W/m2
19:34 80.6 °F /  27 °C 39.4 °F /  4.1 °C 30.10in /  1019.2hPa SW 4.9mph /  7.9km/h 7.0mph /  11.3km/h 23% 0.00in /  0mm 5.0 W/m2
19:39 80.2 °F /  26.8 °C 37.9 °F /  3.3 °C 30.10in /  1019.2hPa SW 2.0mph /  3.2km/h 11.0mph /  17.7km/h 22% 0.00in /  0mm 5.0 W/m2
19:44 80.1 °F /  26.7 °C 37.8 °F /  3.2 °C 30.11in /  1019.5hPa WSW 4.0mph /  6.4km/h 10.0mph /  16.1km/h 22% 0.00in /  0mm 0.0 W/m2
19:49 79.9 °F /  26.6 °C 36.5 °F /  2.5 °C 30.12in /  1019.9hPa WSW 2.9mph /  4.7km/h 6.0mph /  9.7km/h 21% 0.00in /  0mm 0.0 W/m2
19:53 79.7 °F /  26.5 °C 37.6 °F /  3.1 °C 30.12in /  1019.9hPa SW 2.9mph /  4.7km/h 5.0mph /  8km/h 22% 0.00in /  0mm 0.0 W/m2
19:54 79.5 °F /  26.4 °C 36.1 °F /  2.3 °C 30.12in /  1019.9hPa NW 4.0mph /  6.4km/h 9.0mph /  14.5km/h 21% 0.00in /  0mm 0.0 W/m2
20:00 79.0 °F /  26.1 °C 35.8 °F /  2.1 °C 30.12in /  1019.9hPa West 6.9mph /  11.1km/h 9.0mph /  14.5km/h 21% 0.00in /  0mm 0.0 W/m2
20:05 78.4 °F /  25.8 °C 35.2 °F /  1.8 °C 30.12in /  1019.9hPa SW 6.9mph /  11.1km/h 12.0mph /  19.3km/h 21% 0.00in /  0mm 0.0 W/m2
20:10 78.1 °F /  25.6 °C 34.9 °F /  1.6 °C 30.13in /  1020.2hPa West 4.9mph /  7.9km/h 5.0mph /  8km/h 21% 0.00in /  0mm 0.0 W/m2
20:16 77.5 °F /  25.3 °C 34.5 °F /  1.4 °C 30.13in /  1020.2hPa SSW 6.0mph /  9.7km/h 7.0mph /  11.3km/h 21% 0.00in /  0mm 0.0 W/m2
20:26 77.0 °F /  25 °C 32.9 °F /  0.5 °C 30.13in /  1020.2hPa WSW 2.9mph /  4.7km/h 9.0mph /  14.5km/h 20% 0.00in /  0mm 0.0 W/m2
20:31 76.6 °F /  24.8 °C 32.5 °F /  0.3 °C 30.13in /  1020.2hPa SSE 4.0mph /  6.4km/h 9.0mph /  14.5km/h 20% 0.00in /  0mm 0.0 W/m2
20:36 76.3 °F /  24.6 °C 32.2 °F /  0.1 °C 30.14in /  1020.5hPa SSW 4.0mph /  6.4km/h 8.0mph /  12.9km/h 20% 0.00in /  0mm 0.0 W/m2
20:43 75.9 °F /  24.4 °C 32.0 °F /  0 °C 30.14in /  1020.5hPa West 4.9mph /  7.9km/h 7.0mph /  11.3km/h 20% 0.00in /  0mm 0.0 W/m2
20:50 75.4 °F /  24.1 °C 31.5 °F /  -0.3 °C 30.14in /  1020.5hPa West 2.9mph /  4.7km/h 5.0mph /  8km/h 20% 0.00in /  0mm 0.0 W/m2
20:55 75.0 °F /  23.9 °C 32.4 °F /  0.2 °C 30.14in /  1020.5hPa West 4.9mph /  7.9km/h 5.0mph /  8km/h 21% 0.00in /  0mm 0.0 W/m2
21:01 74.8 °F /  23.8 °C 32.4 °F /  0.2 °C 30.14in /  1020.5hPa West 0.9mph /  1.4km/h 2.0mph /  3.2km/h 21% 0.00in /  0mm 0.0 W/m2
21:06 74.7 °F /  23.7 °C 32.2 °F /  0.1 °C 30.15in /  1020.9hPa West 2.9mph /  4.7km/h 4.0mph /  6.4km/h 21% 0.00in /  0mm 0.0 W/m2
21:09 74.5 °F /  23.6 °C 32.0 °F /  0 °C 30.14in /  1020.5hPa SW 0.9mph /  1.4km/h 8.0mph /  12.9km/h 21% 0.00in /  0mm 0.0 W/m2
21:14 74.1 °F /  23.4 °C 32.9 °F /  0.5 °C 30.14in /  1020.5hPa Calm   5.0mph /  8km/h 22% 0.00in /  0mm 0.0 W/m2
21:20 73.9 °F /  23.3 °C 32.7 °F /  0.4 °C 30.15in /  1020.9hPa WSW 2.9mph /  4.7km/h 7.0mph /  11.3km/h 22% 0.00in /  0mm 0.0 W/m2
21:25 73.8 °F /  23.2 °C 32.5 °F /  0.3 °C 30.15in /  1020.9hPa SW 4.0mph /  6.4km/h 7.0mph /  11.3km/h 22% 0.00in /  0mm 0.0 W/m2
21:28 73.8 °F /  23.2 °C 32.5 °F /  0.3 °C 30.15in /  1020.9hPa SW 2.9mph /  4.7km/h 5.0mph /  8km/h 22% 0.00in /  0mm 0.0 W/m2
21:34 73.4 °F /  23 °C 32.2 °F /  0.1 °C 30.15in /  1020.9hPa WSW 2.0mph /  3.2km/h 6.0mph /  9.7km/h 22% 0.00in /  0mm 0.0 W/m2
21:39 73.2 °F /  22.9 °C 32.2 °F /  0.1 °C 30.16in /  1021.2hPa SSW 2.0mph /  3.2km/h 6.0mph /  9.7km/h 22% 0.00in /  0mm 0.0 W/m2
21:43 73.2 °F /  22.9 °C 32.2 °F /  0.1 °C 30.16in /  1021.2hPa WSW 0.9mph /  1.4km/h 6.0mph /  9.7km/h 22% 0.00in /  0mm 0.0 W/m2
21:49 73.0 °F /  22.8 °C 32.0 °F /  0 °C 30.16in /  1021.2hPa Calm   5.0mph /  8km/h 22% 0.00in /  0mm 0.0 W/m2
21:54 73.0 °F /  22.8 °C 33.1 °F /  0.6 °C 30.16in /  1021.2hPa WSW 7.0mph /  11.3km/h 7.0mph /  11.3km/h 23% 0.00in /  0mm 0.0 W/m2
21:59 72.9 °F /  22.7 °C 32.9 °F /  0.5 °C 30.16in /  1021.2hPa WNW 2.0mph /  3.2km/h 5.0mph /  8km/h 23% 0.00in /  0mm 0.0 W/m2
22:04 72.7 °F /  22.6 °C 33.8 °F /  1 °C 30.16in /  1021.2hPa West 6.0mph /  9.7km/h 6.0mph /  9.7km/h 24% 0.00in /  0mm 0.0 W/m2
22:09 72.7 °F /  22.6 °C 33.8 °F /  1 °C 30.16in /  1021.2hPa West 0.9mph /  1.4km/h 2.0mph /  3.2km/h 24% 0.00in /  0mm 0.0 W/m2
22:15 72.7 °F /  22.6 °C 33.8 °F /  1 °C 30.16in /  1021.2hPa Calm   1.0mph /  1.6km/h 24% 0.00in /  0mm 0.0 W/m2
22:17 72.5 °F /  22.5 °C 34.7 °F /  1.5 °C 30.17in /  1021.6hPa Calm   3.0mph /  4.8km/h 25% 0.00in /  0mm 0.0 W/m2
22:22 72.3 °F /  22.4 °C 34.5 °F /  1.4 °C 30.17in /  1021.6hPa Calm   1.0mph /  1.6km/h 25% 0.00in /  0mm 0.0 W/m2
22:28 72.1 °F /  22.3 °C 34.3 °F /  1.3 °C 30.17in /  1021.6hPa Calm     25% 0.00in /  0mm 0.0 W/m2
22:29 72.1 °F /  22.3 °C 35.4 °F /  1.9 °C 30.17in /  1021.6hPa Calm   1.0mph /  1.6km/h 26% 0.00in /  0mm 0.0 W/m2
22:34 72.0 °F /  22.2 °C 34.2 °F /  1.2 °C 30.17in /  1021.6hPa Calm   3.0mph /  4.8km/h 25% 0.00in /  0mm 0.0 W/m2
22:39 72.0 °F /  22.2 °C 34.2 °F /  1.2 °C 30.17in /  1021.6hPa Calm   2.0mph /  3.2km/h 25% 0.00in /  0mm 0.0 W/m2
22:45 71.8 °F /  22.1 °C 34.0 °F /  1.1 °C 30.17in /  1021.6hPa Calm   2.0mph /  3.2km/h 25% 0.00in /  0mm 0.0 W/m2
22:49 71.4 °F /  21.9 °C 33.8 °F /  1 °C 30.17in /  1021.6hPa Calm   1.0mph /  1.6km/h 25% 0.00in /  0mm 0.0 W/m2
22:54 71.4 °F /  21.9 °C 34.7 °F /  1.5 °C 30.17in /  1021.6hPa Calm   1.0mph /  1.6km/h 26% 0.00in /  0mm 0.0 W/m2
22:56 71.2 °F /  21.8 °C 34.5 °F /  1.4 °C 30.17in /  1021.6hPa Calm     26% 0.00in /  0mm 0.0 W/m2
23:02 71.1 °F /  21.7 °C 35.4 °F /  1.9 °C 30.18in /  1021.9hPa Calm     27% 0.00in /  0mm 0.0 W/m2
23:08 70.9 °F /  21.6 °C 36.1 °F /  2.3 °C 30.17in /  1021.6hPa Calm   1.0mph /  1.6km/h 28% 0.00in /  0mm 0.0 W/m2
23:13 70.7 °F /  21.5 °C 36.9 °F /  2.7 °C 30.17in /  1021.6hPa Calm   1.0mph /  1.6km/h 29% 0.00in /  0mm 0.0 W/m2
23:14 70.7 °F /  21.5 °C 37.8 °F /  3.2 °C 30.17in /  1021.6hPa SW 0.9mph /  1.4km/h 2.0mph /  3.2km/h 30% 0.00in /  0mm 0.0 W/m2
23:19 70.5 °F /  21.4 °C 36.7 °F /  2.6 °C 30.17in /  1021.6hPa Calm   3.0mph /  4.8km/h 29% 0.00in /  0mm 0.0 W/m2
23:24 70.5 °F /  21.4 °C 35.8 °F /  2.1 °C 30.18in /  1021.9hPa SSW 0.9mph /  1.4km/h 4.0mph /  6.4km/h 28% 0.00in /  0mm 0.0 W/m2
23:29 70.9 °F /  21.6 °C 35.2 °F /  1.8 °C 30.17in /  1021.6hPa Calm   4.0mph /  6.4km/h 27% 0.00in /  0mm 0.0 W/m2
23:34 71.1 °F /  21.7 °C 35.4 °F /  1.9 °C 30.17in /  1021.6hPa Calm   3.0mph /  4.8km/h 27% 0.00in /  0mm 0.0 W/m2
23:40 71.1 °F /  21.7 °C 35.4 °F /  1.9 °C 30.17in /  1021.6hPa Calm   5.0mph /  8km/h 27% 0.00in /  0mm 0.0 W/m2
23:45 71.1 °F /  21.7 °C 35.4 °F /  1.9 °C 30.17in /  1021.6hPa Calm   4.0mph /  6.4km/h 27% 0.00in /  0mm 0.0 W/m2
23:50 70.9 °F /  21.6 °C 35.2 °F /  1.8 °C 30.17in /  1021.6hPa SSW 2.0mph /  3.2km/h 3.0mph /  4.8km/h 27% 0.00in /  0mm 0.0 W/m2
23:55 70.9 °F /  21.6 °C 36.1 °F /  2.3 °C 30.17in /  1021.6hPa Calm     28% 0.00in /  0mm 0.0 W/m2
23:58 70.7 °F /  21.5 °C 36.0 °F /  2.2 °C 30.17in /  1021.6hPa Calm     28% 0.00in /  0mm 0.0 W/m2
Olympia, Windhoek, Namibia
Compliments of Weather Underground - 3.5 mb